MSC Chiara — H3RT — position and weather

sailwx.info

Track history (hours):
 
Tides and Currents Weather Stations Pressure Air Temp Water Temp Dewpoint Dewpoint Depression Visibility Wind Speed Wind Dir Waves Ship Positions

MSC Chiara

Last reported at 2014-Nov-09 02:13 UTC. Time now 2014-Nov-22 10:36 UTC.
Position S 29°33' E 031°33'.
Warning: this ship's position is 13 days out of date.

Length 197 m; draft 10.6 m.

Type: Ship (hazmat cat A). MMSI: 352398000.

Date/timePositionNaut miles runAvg speedWind from/ knotsBaromVisibWave heightAir tempDewpointWater temp
2014-Nov-09 02:13S 29°33' E 031°33'913.8
2014-Nov-09 01:33S 29°39' E 031°25'1413.9
2014-Nov-09 00:34S 29°48' E 031°13'11 0.8
2014-Nov-08 11:13S 29°53' E 031°01'0 0.0
2014-Nov-06 14:14S 29°53' E 031°02'5 6.7
2014-Nov-06 13:33S 29°50' E 031°05'1 1.2
2014-Nov-06 12:32S 29°50' E 031°07'1 0.8
2014-Nov-06 11:33S 29°49' E 031°06'1010.1
2014-Nov-06 10:33S 29°40' E 031°11'3 2.5
2014-Nov-06 09:29S 29°38' E 031°12'0 0.0
2014-Nov-06 08:31S 29°38' E 031°13'0 0.0
2014-Nov-06 07:30S 29°38' E 031°13'0 0.0
2014-Nov-06 06:30S 29°38' E 031°12'0 0.1
2014-Nov-06 05:29S 29°38' E 031°13'0 0.0
2014-Nov-06 02:10S 29°38' E 031°13'0 0.0
2014-Nov-06 01:33S 29°38' E 031°13'0 0.0
2014-Nov-06 00:27S 29°38' E 031°13'0 0.0
2014-Nov-05 23:33S 29°38' E 031°13'0 0.0
2014-Nov-05 22:32S 29°38' E 031°13'0 0.0
2014-Nov-05 21:32S 29°38' E 031°13'0 0.0
2014-Nov-05 20:31S 29°38' E 031°13'0 0.1
2014-Nov-05 19:31S 29°38' E 031°13'0 0.0
2014-Nov-05 18:30S 29°38' E 031°13'0 0.1
2014-Nov-05 17:30S 29°38' E 031°13'0 0.1
2014-Nov-05 16:30S 29°38' E 031°13'0 0.1
2014-Nov-05 15:29S 29°38' E 031°13'0 0.1
2014-Nov-05 14:29S 29°38' E 031°13'0 0.0
2014-Nov-05 13:28S 29°38' E 031°13'0 0.0
2014-Nov-05 12:28S 29°38' E 031°13'0 0.0
2014-Nov-05 11:33S 29°38' E 031°13'0 0.1
2014-Nov-05 10:33S 29°38' E 031°13'0 0.0
2014-Nov-05 09:33S 29°38' E 031°13'0 0.1
2014-Nov-05 08:32S 29°38' E 031°13'0 0.0
2014-Nov-05 07:32S 29°38' E 031°13'0 0.0
2014-Nov-05 06:25S 29°38' E 031°13'0 0.0
2014-Nov-05 05:31S 29°38' E 031°13'0 0.2
2014-Nov-05 04:34S 29°38' E 031°13'3 3.3
2014-Nov-05 03:34S 29°37' E 031°16'1212.4
2014-Nov-05 02:33S 29°29' E 031°28'  
Track history (hours):
 
Tides and Currents Weather Stations Pressure Air Temp Water Temp Dewpoint Dewpoint Depression Visibility Wind Speed Wind Dir Waves Ship Positions

MSC Chiara

Last reported at 2014-Nov-09 02:13 UTC. Time now 2014-Nov-22 10:36 UTC.
Position S 29°33' E 031°33'.
Warning: this ship's position is 13 days out of date.

Length 197 m; draft 10.6 m.

Type: Ship (hazmat cat A). MMSI: 352398000.

Date/timePositionNaut miles runAvg speedWind from/ knotsBaromVisibWave heightAir tempDewpointWater temp
2014-Nov-09 02:13S 29°33' E 031°33'913.8
2014-Nov-09 01:33S 29°39' E 031°25'1413.9
2014-Nov-09 00:34S 29°48' E 031°13'11 0.8
2014-Nov-08 11:13S 29°53' E 031°01'0 0.0
2014-Nov-06 14:14S 29°53' E 031°02'5 6.7
2014-Nov-06 13:33S 29°50' E 031°05'1 1.2
2014-Nov-06 12:32S 29°50' E 031°07'1 0.8
2014-Nov-06 11:33S 29°49' E 031°06'1010.1
2014-Nov-06 10:33S 29°40' E 031°11'3 2.5
2014-Nov-06 09:29S 29°38' E 031°12'0 0.0
2014-Nov-06 08:31S 29°38' E 031°13'0 0.0
2014-Nov-06 07:30S 29°38' E 031°13'0 0.0
2014-Nov-06 06:30S 29°38' E 031°12'0 0.1
2014-Nov-06 05:29S 29°38' E 031°13'0 0.0
2014-Nov-06 02:10S 29°38' E 031°13'0 0.0
2014-Nov-06 01:33S 29°38' E 031°13'0 0.0
2014-Nov-06 00:27S 29°38' E 031°13'0 0.0
2014-Nov-05 23:33S 29°38' E 031°13'0 0.0
2014-Nov-05 22:32S 29°38' E 031°13'0 0.0
2014-Nov-05 21:32S 29°38' E 031°13'0 0.0
2014-Nov-05 20:31S 29°38' E 031°13'0 0.1
2014-Nov-05 19:31S 29°38' E 031°13'0 0.0
2014-Nov-05 18:30S 29°38' E 031°13'0 0.1
2014-Nov-05 17:30S 29°38' E 031°13'0 0.1
2014-Nov-05 16:30S 29°38' E 031°13'0 0.1
2014-Nov-05 15:29S 29°38' E 031°13'0 0.1
2014-Nov-05 14:29S 29°38' E 031°13'0 0.0
2014-Nov-05 13:28S 29°38' E 031°13'0 0.0
2014-Nov-05 12:28S 29°38' E 031°13'0 0.0
2014-Nov-05 11:33S 29°38' E 031°13'0 0.1
2014-Nov-05 10:33S 29°38' E 031°13'0 0.0
2014-Nov-05 09:33S 29°38' E 031°13'0 0.1
2014-Nov-05 08:32S 29°38' E 031°13'0 0.0
2014-Nov-05 07:32S 29°38' E 031°13'0 0.0
2014-Nov-05 06:25S 29°38' E 031°13'0 0.0
2014-Nov-05 05:31S 29°38' E 031°13'0 0.2
2014-Nov-05 04:34S 29°38' E 031°13'3 3.3
2014-Nov-05 03:34S 29°37' E 031°16'1212.4
2014-Nov-05 02:33S 29°29' E 031°28'  

Dump ship's entire track history